createdAt,value
2017-11-03T00:00:08.609Z,20.81
2017-11-03T00:00:46.034Z,20.81
2017-11-03T00:01:23.427Z,20.79
2017-11-03T00:02:00.725Z,20.79
2017-11-03T00:02:38.149Z,20.77
2017-11-03T00:03:15.447Z,20.76
2017-11-03T00:03:52.821Z,20.77
2017-11-03T00:04:30.148Z,20.75
2017-11-03T00:05:07.719Z,20.74
2017-11-03T00:05:44.969Z,20.73
2017-11-03T00:06:22.345Z,20.72
2017-11-03T00:06:59.585Z,20.72
2017-11-03T00:07:36.819Z,20.73
2017-11-03T00:08:14.209Z,20.72
2017-11-03T00:08:51.779Z,20.72
2017-11-03T00:09:29.258Z,20.70
2017-11-03T00:10:06.580Z,20.69
2017-11-03T00:10:44.176Z,20.70
2017-11-03T00:11:21.398Z,20.69
2017-11-03T00:11:58.864Z,20.68
2017-11-03T00:12:36.344Z,20.68
2017-11-03T00:13:13.678Z,20.68
2017-11-03T00:13:50.890Z,20.67
2017-11-03T00:14:28.439Z,20.65
2017-11-03T00:15:05.784Z,20.64
2017-11-03T00:15:43.385Z,20.64
2017-11-03T00:16:20.658Z,20.63
2017-11-03T00:16:58.078Z,20.64
2017-11-03T00:17:35.754Z,20.64
2017-11-03T00:18:12.977Z,20.65
2017-11-03T00:18:50.377Z,20.64
2017-11-03T00:19:27.672Z,20.65
2017-11-03T00:20:05.171Z,20.65
2017-11-03T00:20:42.646Z,20.66
2017-11-03T00:21:20.125Z,20.67
2017-11-03T00:21:57.542Z,20.68
2017-11-03T00:22:34.793Z,20.68
2017-11-03T00:23:12.121Z,20.70
2017-11-03T00:23:49.329Z,20.73
2017-11-03T00:24:26.561Z,20.75
2017-11-03T00:25:03.837Z,20.78
2017-11-03T00:25:41.210Z,20.78
2017-11-03T00:26:18.584Z,20.80
2017-11-03T00:26:55.953Z,20.82
2017-11-03T00:27:33.202Z,20.84
2017-11-03T00:28:10.750Z,20.86
2017-11-03T00:28:47.997Z,20.87
2017-11-03T00:29:25.245Z,20.90
2017-11-03T00:30:02.678Z,20.89
2017-11-03T00:30:40.156Z,20.93
2017-11-03T00:31:17.864Z,20.95
2017-11-03T00:31:55.121Z,20.96
2017-11-03T00:32:32.794Z,20.98
2017-11-03T00:33:10.043Z,21.00
2017-11-03T00:33:47.262Z,21.04
2017-11-03T00:34:24.679Z,21.04
2017-11-03T00:35:02.209Z,21.07
2017-11-03T00:35:39.601Z,21.08
2017-11-03T00:36:16.801Z,21.07
2017-11-03T00:36:54.281Z,21.07
2017-11-03T00:37:31.749Z,21.08
2017-11-03T00:38:08.993Z,21.09
2017-11-03T00:38:46.418Z,21.10
2017-11-03T00:39:23.640Z,21.13
2017-11-03T00:40:00.919Z,21.11
2017-11-03T00:40:38.287Z,21.11
2017-11-03T00:41:15.662Z,21.11
2017-11-03T00:41:52.909Z,21.10
2017-11-03T00:42:30.409Z,21.08
2017-11-03T00:43:07.888Z,21.08
2017-11-03T00:43:45.367Z,21.10
2017-11-03T00:44:22.881Z,21.11
2017-11-03T00:45:00.300Z,21.11
2017-11-03T00:45:37.626Z,21.12
2017-11-03T00:46:15.170Z,21.12
2017-11-03T00:46:52.425Z,21.12
2017-11-03T00:47:29.665Z,21.13
2017-11-03T00:48:07.161Z,21.13
2017-11-03T00:48:44.445Z,21.13
2017-11-03T00:49:21.761Z,21.14
2017-11-03T00:49:59.057Z,21.15
2017-11-03T00:50:36.461Z,21.14
2017-11-03T00:51:13.684Z,21.12
2017-11-03T00:51:50.906Z,21.10
2017-11-03T00:52:28.528Z,21.10
2017-11-03T00:53:05.829Z,21.06
2017-11-03T00:53:43.183Z,21.06
2017-11-03T00:54:20.451Z,21.06
2017-11-03T00:54:57.844Z,21.07
2017-11-03T00:55:35.065Z,21.05
2017-11-03T00:56:12.365Z,21.05
2017-11-03T00:56:49.815Z,21.03
2017-11-03T00:57:27.065Z,21.08
2017-11-03T00:58:04.314Z,21.11
2017-11-03T00:58:41.609Z,21.10
2017-11-03T00:59:19.157Z,21.12
2017-11-03T00:59:56.698Z,21.09
2017-11-03T01:00:34.221Z,21.07
2017-11-03T01:01:11.548Z,21.05
2017-11-03T01:01:48.800Z,21.03
2017-11-03T01:02:26.174Z,20.98
2017-11-03T01:03:03.394Z,20.94
2017-11-03T01:03:40.749Z,20.94
2017-11-03T01:04:18.118Z,20.90
2017-11-03T01:04:55.365Z,20.88
2017-11-03T01:05:32.822Z,20.87
2017-11-03T01:06:10.300Z,20.84
2017-11-03T01:06:47.633Z,20.82
2017-11-03T01:07:25.081Z,20.81
2017-11-03T01:08:02.606Z,20.81
2017-11-03T01:08:39.786Z,20.80
2017-11-03T01:09:17.388Z,20.79
2017-11-03T01:09:54.801Z,20.78
2017-11-03T01:10:32.098Z,20.78
2017-11-03T01:11:09.545Z,20.77
2017-11-03T01:11:46.817Z,20.74
2017-11-03T01:12:24.220Z,20.73
2017-11-03T01:13:01.645Z,20.72
2017-11-03T01:13:39.041Z,20.73
2017-11-03T01:14:16.337Z,20.73
2017-11-03T01:14:53.774Z,20.72
2017-11-03T01:15:31.161Z,20.72
2017-11-03T01:16:08.485Z,20.70
2017-11-03T01:16:46.206Z,20.71
2017-11-03T01:17:23.654Z,20.70
2017-11-03T01:18:00.953Z,20.69
2017-11-03T01:18:38.358Z,20.69
2017-11-03T01:19:15.673Z,20.68
2017-11-03T01:19:53.021Z,20.69
2017-11-03T01:20:30.293Z,20.70
2017-11-03T01:21:07.753Z,20.69
2017-11-03T01:21:45.427Z,20.67
2017-11-03T01:22:22.817Z,20.66
2017-11-03T01:23:00.074Z,20.68
2017-11-03T01:23:37.555Z,20.66
2017-11-03T01:24:14.985Z,20.64
2017-11-03T01:24:52.381Z,20.63
2017-11-03T01:25:29.686Z,20.65
2017-11-03T01:26:07.163Z,20.66
2017-11-03T01:26:44.642Z,20.66
2017-11-03T01:27:21.979Z,20.64
2017-11-03T01:27:59.227Z,20.64
2017-11-03T01:28:36.722Z,20.65
2017-11-03T01:29:13.969Z,20.66
2017-11-03T01:29:51.421Z,20.64
2017-11-03T01:30:28.813Z,20.65
2017-11-03T01:31:06.061Z,20.64
2017-11-03T01:31:43.478Z,20.63
2017-11-03T01:32:20.923Z,20.62
2017-11-03T01:32:58.434Z,20.62
2017-11-03T01:33:35.705Z,20.61
2017-11-03T01:34:13.354Z,20.61
2017-11-03T01:34:50.576Z,20.60
2017-11-03T01:35:28.116Z,20.59
2017-11-03T01:36:05.397Z,20.59
2017-11-03T01:36:43.047Z,20.59
2017-11-03T01:37:20.390Z,20.58
2017-11-03T01:37:58.019Z,20.58
2017-11-03T01:38:35.265Z,20.57
2017-11-03T01:39:12.618Z,20.55
2017-11-03T01:39:49.852Z,20.56
2017-11-03T01:40:27.260Z,20.55
2017-11-03T01:41:04.509Z,20.55
2017-11-03T01:41:41.985Z,20.54
2017-11-03T01:42:19.465Z,20.54
2017-11-03T01:42:56.954Z,20.53
2017-11-03T01:43:34.249Z,20.53
2017-11-03T01:44:11.601Z,20.52
2017-11-03T01:44:48.892Z,20.51
2017-11-03T01:45:26.269Z,20.51
2017-11-03T01:46:03.537Z,20.51
2017-11-03T01:46:40.946Z,20.51
2017-11-03T01:47:18.349Z,20.51
2017-11-03T01:47:55.590Z,20.52
2017-11-03T01:48:32.937Z,20.52
2017-11-03T01:49:10.288Z,20.52
2017-11-03T01:49:49.346Z,20.53
2017-11-03T01:50:26.610Z,20.52
2017-11-03T01:51:04.006Z,20.52
2017-11-03T01:51:41.276Z,20.54
2017-11-03T01:52:18.813Z,20.55
2017-11-03T01:52:56.598Z,20.57
2017-11-03T01:53:34.047Z,20.55
2017-11-03T01:54:11.405Z,20.59
2017-11-03T01:54:48.993Z,20.59
2017-11-03T01:55:26.222Z,20.57
2017-11-03T01:56:03.489Z,20.59
2017-11-03T01:56:40.784Z,20.57
2017-11-03T01:57:18.161Z,20.59
2017-11-03T01:57:55.380Z,20.64
2017-11-03T01:58:32.806Z,20.68
2017-11-03T01:59:10.158Z,20.70
2017-11-03T01:59:47.558Z,20.73
2017-11-03T02:00:24.753Z,20.75
2017-11-03T02:01:02.275Z,20.75
2017-11-03T02:01:39.525Z,20.76
2017-11-03T02:02:16.938Z,20.77
2017-11-03T02:02:54.140Z,20.78
2017-11-03T02:03:31.518Z,20.80
2017-11-03T02:04:08.812Z,20.82
2017-11-03T02:04:46.237Z,20.79
2017-11-03T02:05:23.911Z,20.80
2017-11-03T02:06:01.198Z,20.79
2017-11-03T02:06:38.614Z,20.79
2017-11-03T02:07:15.881Z,20.78
2017-11-03T02:10:37.650Z,20.87
2017-11-03T02:11:15.162Z,20.86
2017-11-03T02:11:52.636Z,20.87
2017-11-03T02:12:29.970Z,20.88
2017-11-03T02:13:07.212Z,20.92
2017-11-03T02:13:44.765Z,20.92
2017-11-03T02:14:22.244Z,20.93
2017-11-03T02:14:59.634Z,20.95
2017-11-03T02:15:37.131Z,20.94
2017-11-03T02:16:14.489Z,20.94
2017-11-03T02:16:51.878Z,20.94
2017-11-03T02:17:29.177Z,20.94
2017-11-03T02:18:06.549Z,20.95
2017-11-03T02:18:43.980Z,20.96
2017-11-03T02:19:21.373Z,20.97
2017-11-03T02:19:58.693Z,20.97
2017-11-03T02:20:36.016Z,20.97
2017-11-03T02:21:13.318Z,20.96
2017-11-03T02:21:50.769Z,20.93
2017-11-03T02:22:28.061Z,20.95
2017-11-03T02:23:05.486Z,20.97
2017-11-03T02:23:42.733Z,20.98
2017-11-03T02:24:20.133Z,20.96
2017-11-03T02:24:57.408Z,20.96
2017-11-03T02:25:34.701Z,20.95
2017-11-03T02:26:12.050Z,20.94
2017-11-03T02:26:49.273Z,20.93
2017-11-03T02:27:26.773Z,20.94
2017-11-03T02:28:04.074Z,20.93
2017-11-03T02:28:41.518Z,20.93
2017-11-03T02:29:18.764Z,20.94
2017-11-03T02:29:56.203Z,20.93
2017-11-03T02:30:33.462Z,20.93
2017-11-03T02:31:10.808Z,20.93
2017-11-03T02:31:48.085Z,20.93
2017-11-03T02:32:25.458Z,20.90
2017-11-03T02:33:02.833Z,20.90
2017-11-03T02:33:40.206Z,20.87
2017-11-03T02:34:17.425Z,20.88
2017-11-03T02:34:54.753Z,20.86
2017-11-03T02:35:32.174Z,20.85
2017-11-03T02:36:09.445Z,20.86
2017-11-03T02:36:46.901Z,20.83
2017-11-03T02:37:24.343Z,20.83
2017-11-03T02:38:01.564Z,20.81
2017-11-03T02:38:39.641Z,20.80
2017-11-03T02:39:16.909Z,20.82
2017-11-03T02:39:53.651Z,20.83
2017-11-03T02:40:25.300Z,20.82
2017-11-03T02:40:57.139Z,20.82
2017-11-03T02:41:28.883Z,20.81
2017-11-03T02:42:00.838Z,20.81
2017-11-03T02:42:32.485Z,20.72
2017-11-03T02:43:04.125Z,20.75
2017-11-03T02:43:35.768Z,20.74
2017-11-03T02:44:07.457Z,20.75
2017-11-03T02:44:39.097Z,20.75
2017-11-03T02:45:10.745Z,20.75
2017-11-03T02:45:42.633Z,20.75
2017-11-03T02:46:14.582Z,20.74
2017-11-03T02:46:46.415Z,20.75
2017-11-03T02:47:18.173Z,20.77
2017-11-03T02:47:49.813Z,20.77
2017-11-03T02:48:21.764Z,20.77
2017-11-03T02:48:53.716Z,20.77
2017-11-03T02:49:25.559Z,20.76
2017-11-03T02:49:57.304Z,20.76
2017-11-03T02:50:29.178Z,20.75
2017-11-03T02:51:00.817Z,20.75
2017-11-03T02:51:32.506Z,20.75
2017-11-03T02:52:04.179Z,20.73
2017-11-03T02:52:35.829Z,20.74
2017-11-03T02:53:07.468Z,20.74
2017-11-03T02:53:39.113Z,20.74
2017-11-03T02:54:11.053Z,20.71
2017-11-03T02:54:42.741Z,20.73
2017-11-03T02:55:14.385Z,20.74
2017-11-03T02:55:46.034Z,20.73
2017-11-03T02:56:17.682Z,20.74
2017-11-03T02:56:49.576Z,20.73
2017-11-03T02:57:21.220Z,20.70
2017-11-03T02:57:52.870Z,20.71
2017-11-03T02:58:24.513Z,20.72
2017-11-03T02:58:56.192Z,20.70
2017-11-03T02:59:27.838Z,20.70
2017-11-03T02:59:59.489Z,20.69
2017-11-03T03:00:31.324Z,20.69
2017-11-03T03:01:03.022Z,20.68
2017-11-03T03:01:34.665Z,20.70
2017-11-03T03:02:06.305Z,20.69
2017-11-03T03:02:37.950Z,20.68
2017-11-03T03:03:09.593Z,20.66
2017-11-03T03:03:41.238Z,20.68
2017-11-03T03:04:12.882Z,20.66
2017-11-03T03:04:44.529Z,20.65
2017-11-03T03:05:16.168Z,20.64
2017-11-03T03:05:47.809Z,20.64
2017-11-03T03:06:19.505Z,20.64
2017-11-03T03:06:51.149Z,20.63
2017-11-03T03:07:22.789Z,20.62
2017-11-03T03:07:54.628Z,20.63
2017-11-03T03:08:26.305Z,20.62
2017-11-03T03:08:58.255Z,20.61
2017-11-03T03:09:29.905Z,20.61
2017-11-03T03:10:01.546Z,20.59
2017-11-03T03:10:33.378Z,20.60
2017-11-03T03:11:05.130Z,20.59
2017-11-03T03:11:36.817Z,20.57
2017-11-03T03:12:08.691Z,20.58
2017-11-03T03:12:40.366Z,20.57
2017-11-03T03:13:12.013Z,20.58
2017-11-03T03:13:43.672Z,20.58
2017-11-03T03:14:15.317Z,20.56
2017-11-03T03:14:46.961Z,20.55
2017-11-03T03:15:18.610Z,20.55
2017-11-03T03:15:50.257Z,20.54
2017-11-03T03:16:21.904Z,20.54
2017-11-03T03:16:53.752Z,20.53
2017-11-03T03:17:25.398Z,20.52
2017-11-03T03:17:57.273Z,20.51
2017-11-03T03:18:29.038Z,20.53
2017-11-03T03:19:00.989Z,20.53
2017-11-03T03:19:32.641Z,20.51
2017-11-03T03:20:04.290Z,20.52
2017-11-03T03:20:35.934Z,20.50
2017-11-03T03:21:07.758Z,20.50
2017-11-03T03:21:39.505Z,20.50
2017-11-03T03:22:11.153Z,20.50
2017-11-03T03:22:43.077Z,20.48
2017-11-03T03:23:14.936Z,20.50
2017-11-03T03:23:46.689Z,20.50
2017-11-03T03:24:18.339Z,20.51
2017-11-03T03:24:49.987Z,20.51
2017-11-03T03:25:21.634Z,20.49
2017-11-03T03:25:53.281Z,20.51
2017-11-03T03:26:24.929Z,20.54
2017-11-03T03:26:56.570Z,20.51
2017-11-03T03:27:28.214Z,20.55
2017-11-03T03:27:59.853Z,20.57
2017-11-03T03:28:31.497Z,20.58
2017-11-03T03:29:03.137Z,20.59
2017-11-03T03:29:34.782Z,20.61
2017-11-03T03:30:06.697Z,20.61
2017-11-03T03:30:38.309Z,20.60
2017-11-03T03:31:09.980Z,20.64
2017-11-03T03:31:41.807Z,20.66
2017-11-03T03:32:13.678Z,20.67
2017-11-03T03:32:45.321Z,20.66
2017-11-03T03:33:16.969Z,20.68
2017-11-03T03:33:48.804Z,20.66
2017-11-03T03:34:20.650Z,20.65
2017-11-03T03:34:52.395Z,20.66
2017-11-03T03:35:24.082Z,20.65
2017-11-03T03:35:55.733Z,20.67
2017-11-03T03:36:27.378Z,20.68
2017-11-03T03:36:59.161Z,20.68
2017-11-03T03:37:30.911Z,20.71
2017-11-03T03:38:02.862Z,20.72
2017-11-03T03:38:34.509Z,20.76
2017-11-03T03:39:06.198Z,20.75
2017-11-03T03:39:37.849Z,20.76
2017-11-03T03:40:09.498Z,20.75
2017-11-03T03:40:41.145Z,20.75
2017-11-03T03:41:13.019Z,20.76
2017-11-03T03:41:44.983Z,20.78
2017-11-03T03:42:16.681Z,20.77
2017-11-03T03:42:48.321Z,20.78
2017-11-03T03:43:19.969Z,20.79
2017-11-03T03:43:51.844Z,20.78
2017-11-03T03:44:23.497Z,20.79
2017-11-03T03:44:55.141Z,20.78
2017-11-03T03:45:26.789Z,20.79
2017-11-03T03:45:58.481Z,20.77
2017-11-03T03:46:30.361Z,20.80
2017-11-03T03:47:02.017Z,20.80
2017-11-03T03:47:33.666Z,20.80
2017-11-03T03:48:05.309Z,20.83
2017-11-03T03:48:36.981Z,20.84
2017-11-03T03:49:08.626Z,20.86
2017-11-03T03:49:40.273Z,20.86
2017-11-03T03:50:12.154Z,20.85
2017-11-03T03:50:44.110Z,20.88
2017-11-03T03:51:15.800Z,20.91
2017-11-03T03:51:47.450Z,20.91
2017-11-03T03:52:19.094Z,20.93
2017-11-03T03:52:50.737Z,20.94
2017-11-03T03:53:22.381Z,20.94
2017-11-03T03:53:54.221Z,20.95
2017-11-03T03:54:26.112Z,20.91
2017-11-03T03:54:57.766Z,20.88
2017-11-03T03:55:29.409Z,20.87
2017-11-03T03:56:01.057Z,20.89
2017-11-03T03:56:32.697Z,20.88
2017-11-03T03:57:04.432Z,20.90
2017-11-03T03:57:36.079Z,20.95
2017-11-03T03:58:07.729Z,20.93
2017-11-03T03:58:39.373Z,20.94
2017-11-03T03:59:11.014Z,20.90
2017-11-03T03:59:42.876Z,20.91
2017-11-03T04:00:14.518Z,20.89
2017-11-03T04:00:46.165Z,20.90
2017-11-03T04:01:17.805Z,20.89
2017-11-03T04:01:49.450Z,20.94
2017-11-03T04:02:21.097Z,20.95
2017-11-03T04:02:52.750Z,20.94
2017-11-03T04:03:24.405Z,20.95
2017-11-03T04:03:56.079Z,20.92
2017-11-03T04:04:27.962Z,20.90
2017-11-03T04:04:59.671Z,20.90
2017-11-03T04:05:31.315Z,20.90
2017-11-03T04:06:03.001Z,20.89
2017-11-03T04:06:34.645Z,20.88
2017-11-03T04:07:06.294Z,20.90
2017-11-03T04:07:37.941Z,20.90
2017-11-03T04:08:09.829Z,20.89
2017-11-03T04:08:41.478Z,20.88
2017-11-03T04:09:13.125Z,20.88
2017-11-03T04:09:45.788Z,20.87
2017-11-03T04:10:17.440Z,20.88
2017-11-03T04:10:49.273Z,20.89
2017-11-03T04:11:21.108Z,20.91
2017-11-03T04:11:52.859Z,20.93
2017-11-03T04:12:24.509Z,20.92
2017-11-03T04:12:56.158Z,20.91
2017-11-03T04:13:27.801Z,20.88
2017-11-03T04:13:59.445Z,20.88
2017-11-03T04:14:31.085Z,20.87
2017-11-03T04:15:02.734Z,20.79
2017-11-03T04:15:34.378Z,20.85
2017-11-03T04:16:06.065Z,20.85
2017-11-03T04:16:37.713Z,20.85
2017-11-03T04:17:09.553Z,20.85
2017-11-03T04:17:41.225Z,20.86
2017-11-03T04:18:12.873Z,20.86
2017-11-03T04:18:44.526Z,20.85
2017-11-03T04:19:16.173Z,20.84
2017-11-03T04:19:47.814Z,20.83
2017-11-03T04:20:19.464Z,20.83
2017-11-03T04:20:51.342Z,20.81
2017-11-03T04:21:23.027Z,20.79
2017-11-03T04:21:54.975Z,20.81
2017-11-03T04:22:26.859Z,20.81
2017-11-03T04:22:58.501Z,20.82
2017-11-03T04:23:30.142Z,20.82
2017-11-03T04:24:01.798Z,20.80
2017-11-03T04:24:33.445Z,20.82
2017-11-03T04:25:05.326Z,20.81
2017-11-03T04:25:37.083Z,20.78
2017-11-03T04:26:09.032Z,20.77
2017-11-03T04:26:40.678Z,20.76
2017-11-03T04:27:12.321Z,20.74
2017-11-03T04:27:43.966Z,20.74
2017-11-03T04:28:15.908Z,20.74
2017-11-03T04:28:47.557Z,20.73
2017-11-03T04:29:19.202Z,20.73
2017-11-03T04:29:50.841Z,20.72
2017-11-03T04:30:22.485Z,20.71
2017-11-03T04:30:54.146Z,20.70
2017-11-03T04:31:25.797Z,20.72
2017-11-03T04:31:57.445Z,20.71
2017-11-03T04:32:29.089Z,20.70
2017-11-03T04:33:00.742Z,20.68
2017-11-03T04:33:32.626Z,20.68
2017-11-03T04:34:04.583Z,20.69
2017-11-03T04:34:36.278Z,20.69
2017-11-03T04:35:07.925Z,20.68
2017-11-03T04:35:39.567Z,20.67
2017-11-03T04:36:11.210Z,20.68
2017-11-03T04:36:42.854Z,20.67
2017-11-03T04:37:14.691Z,20.67
2017-11-03T04:37:46.338Z,20.67
2017-11-03T04:38:18.026Z,20.66
2017-11-03T04:38:49.673Z,20.66
2017-11-03T04:39:21.318Z,20.67
2017-11-03T04:39:53.005Z,20.64
2017-11-03T04:40:24.646Z,20.64
2017-11-03T04:40:56.289Z,20.64
2017-11-03T04:41:27.934Z,20.64
2017-11-03T04:41:59.577Z,20.63
2017-11-03T04:42:31.222Z,20.62
2017-11-03T04:43:02.921Z,20.62
2017-11-03T04:43:34.564Z,20.62
2017-11-03T04:44:06.281Z,20.62
2017-11-03T04:44:38.036Z,20.60
2017-11-03T04:45:09.984Z,20.60
2017-11-03T04:45:41.866Z,20.59
2017-11-03T04:46:13.586Z,20.57
2017-11-03T04:46:45.234Z,20.59
2017-11-03T04:47:16.878Z,20.58
2017-11-03T04:47:48.521Z,20.57
2017-11-03T04:48:20.205Z,20.58
2017-11-03T04:48:51.846Z,20.58
2017-11-03T04:49:23.493Z,20.58
2017-11-03T04:49:55.329Z,20.58
2017-11-03T04:50:26.977Z,20.57
2017-11-03T04:50:58.660Z,20.57
2017-11-03T04:51:30.524Z,20.57
2017-11-03T04:52:02.205Z,20.57
2017-11-03T04:52:33.892Z,20.57
2017-11-03T04:53:05.542Z,20.57
2017-11-03T04:53:37.233Z,20.56
2017-11-03T04:54:08.874Z,20.55
2017-11-03T04:54:40.517Z,20.54
2017-11-03T04:55:12.161Z,20.54
2017-11-03T04:55:43.809Z,20.54
2017-11-03T04:56:15.499Z,20.55
2017-11-03T04:56:47.146Z,20.55
2017-11-03T04:57:18.790Z,20.54
2017-11-03T04:57:50.438Z,20.54
2017-11-03T04:58:22.089Z,20.55
2017-11-03T04:58:53.737Z,20.55
2017-11-03T04:59:25.377Z,20.55
2017-11-03T04:59:57.021Z,20.56
2017-11-03T05:00:28.661Z,20.56
2017-11-03T05:01:00.470Z,20.57
2017-11-03T05:01:32.126Z,20.57
2017-11-03T05:02:03.769Z,20.59
2017-11-03T05:02:35.411Z,20.59
2017-11-03T05:03:07.053Z,20.61
2017-11-03T05:03:38.697Z,20.61
2017-11-03T05:04:10.340Z,20.60
2017-11-03T05:04:41.981Z,20.60
2017-11-03T05:05:13.629Z,20.58
2017-11-03T05:05:45.322Z,20.57
2017-11-03T05:06:17.196Z,20.57
2017-11-03T05:06:49.030Z,20.57
2017-11-03T05:07:20.787Z,20.56
2017-11-03T05:07:52.736Z,20.56
2017-11-03T05:08:24.385Z,20.56
2017-11-03T05:08:56.030Z,20.56
2017-11-03T05:09:27.726Z,20.56
2017-11-03T05:09:59.610Z,20.55
2017-11-03T05:10:31.262Z,20.54
2017-11-03T05:11:02.911Z,20.54
2017-11-03T05:11:34.554Z,20.53
2017-11-03T05:12:06.198Z,20.54
2017-11-03T05:12:37.842Z,20.52
2017-11-03T05:13:09.485Z,20.53
2017-11-03T05:13:41.125Z,20.53
2017-11-03T05:14:12.765Z,20.53
2017-11-03T05:14:44.413Z,20.53
2017-11-03T05:15:16.054Z,20.52
2017-11-03T05:15:47.704Z,20.52
2017-11-03T05:16:19.345Z,20.56
2017-11-03T05:16:50.985Z,20.57
2017-11-03T05:17:22.635Z,20.56
2017-11-03T05:17:54.438Z,20.58
2017-11-03T05:18:26.189Z,20.57
2017-11-03T05:18:57.837Z,20.60
2017-11-03T05:19:29.530Z,20.62
2017-11-03T05:20:01.226Z,20.62
2017-11-03T05:20:32.918Z,20.64
2017-11-03T05:21:04.569Z,20.66
2017-11-03T05:21:36.348Z,20.67
2017-11-03T05:22:07.997Z,20.66
2017-11-03T05:22:39.645Z,20.68
2017-11-03T05:23:11.294Z,20.68
2017-11-03T05:23:42.937Z,20.70
2017-11-03T05:24:14.581Z,20.71
2017-11-03T05:24:46.225Z,20.76
2017-11-03T05:25:17.870Z,20.78
2017-11-03T05:25:49.557Z,20.83
2017-11-03T05:26:21.398Z,20.85
2017-11-03T05:26:53.073Z,20.86
2017-11-03T05:27:24.969Z,20.85
2017-11-03T05:27:56.625Z,20.85
2017-11-03T05:28:28.307Z,20.88
2017-11-03T05:29:00.189Z,20.90
2017-11-03T05:29:32.167Z,20.94
2017-11-03T05:30:03.848Z,20.96
2017-11-03T05:30:35.497Z,21.00
2017-11-03T05:31:07.149Z,20.99
2017-11-03T05:31:38.798Z,20.98
2017-11-03T05:32:10.441Z,21.00
2017-11-03T05:32:42.089Z,21.01
2017-11-03T05:33:13.733Z,21.01
2017-11-03T05:33:45.374Z,21.03
2017-11-03T05:34:17.021Z,21.05
2017-11-03T05:34:48.898Z,21.05
2017-11-03T05:35:20.590Z,21.06
2017-11-03T05:35:52.233Z,21.06
2017-11-03T05:36:24.054Z,21.07
2017-11-03T05:36:55.742Z,21.08
2017-11-03T05:37:27.390Z,21.06
2017-11-03T05:37:59.034Z,21.11
2017-11-03T05:38:30.693Z,21.10
2017-11-03T05:39:02.374Z,21.11
2017-11-03T05:39:34.322Z,21.14
2017-11-03T05:40:06.157Z,21.15
2017-11-03T05:40:37.914Z,21.17
2017-11-03T05:41:09.862Z,21.17
2017-11-03T05:41:41.811Z,21.16
2017-11-03T05:42:13.498Z,21.15
2017-11-03T05:42:45.145Z,21.14
2017-11-03T05:43:16.794Z,21.15
2017-11-03T05:43:48.438Z,21.16
2017-11-03T05:44:20.081Z,21.17
2017-11-03T05:44:51.725Z,21.19
2017-11-03T05:45:23.567Z,21.16
2017-11-03T05:45:55.214Z,21.14
2017-11-03T05:46:26.868Z,21.13
2017-11-03T05:46:58.575Z,21.11
2017-11-03T05:47:30.222Z,21.08
2017-11-03T05:48:01.866Z,21.11
2017-11-03T05:48:33.513Z,21.10
2017-11-03T05:49:05.162Z,21.12
2017-11-03T05:49:36.955Z,21.13
2017-11-03T05:50:08.606Z,21.12
2017-11-03T05:50:40.250Z,21.09
2017-11-03T05:51:11.894Z,21.10
2017-11-03T05:51:43.541Z,21.10
2017-11-03T05:52:15.229Z,21.10
2017-11-03T05:52:46.877Z,21.07
2017-11-03T05:53:18.526Z,21.03
2017-11-03T05:53:50.190Z,21.04
2017-11-03T05:54:22.139Z,21.01
2017-11-03T05:54:54.088Z,21.00
2017-11-03T05:55:25.738Z,20.98
2017-11-03T05:55:57.389Z,20.98
2017-11-03T05:56:29.030Z,20.96
2017-11-03T05:57:00.673Z,20.95
2017-11-03T05:57:32.358Z,20.95
2017-11-03T05:58:04.246Z,20.96
2017-11-03T05:58:36.128Z,20.95
2017-11-03T05:59:07.773Z,20.94
2017-11-03T05:59:39.414Z,20.93
2017-11-03T06:00:11.056Z,20.92
2017-11-03T06:00:42.698Z,20.92
2017-11-03T06:01:14.347Z,20.91
2017-11-03T06:01:46.002Z,20.90
2017-11-03T06:02:17.649Z,20.90
2017-11-03T06:02:49.357Z,20.89
2017-11-03T06:03:21.002Z,20.89
2017-11-03T06:03:52.645Z,20.88
2017-11-03T06:04:24.455Z,20.89
2017-11-03T06:04:56.205Z,20.88
2017-11-03T06:05:28.108Z,20.88
2017-11-03T06:05:59.796Z,20.89
2017-11-03T06:06:31.746Z,20.91
2017-11-03T06:07:03.694Z,20.90
2017-11-03T06:07:35.644Z,20.87
2017-11-03T06:08:07.525Z,20.89
2017-11-03T06:08:39.173Z,20.89
2017-11-03T06:09:10.814Z,20.88
2017-11-03T06:09:42.461Z,20.85
2017-11-03T06:10:14.102Z,20.86
2017-11-03T06:10:45.758Z,20.84
2017-11-03T06:11:17.405Z,20.84
2017-11-03T06:11:49.086Z,20.85
2017-11-03T06:12:20.737Z,20.85
2017-11-03T06:12:52.381Z,20.83
2017-11-03T06:13:24.069Z,20.84
2017-11-03T06:13:55.722Z,20.83
2017-11-03T06:14:27.494Z,20.85
2017-11-03T06:14:59.444Z,20.85
2017-11-03T06:15:31.193Z,20.85
2017-11-03T06:16:03.077Z,20.83
2017-11-03T06:16:34.784Z,20.82
2017-11-03T06:17:06.442Z,20.81
2017-11-03T06:17:38.100Z,20.82
2017-11-03T06:18:09.742Z,20.82
2017-11-03T06:18:41.385Z,20.83
2017-11-03T06:19:13.029Z,20.81
2017-11-03T06:19:44.672Z,20.81
2017-11-03T06:20:16.313Z,20.81
2017-11-03T06:20:47.978Z,20.81
2017-11-03T06:21:19.978Z,20.82
2017-11-03T06:21:51.666Z,20.80
2017-11-03T06:22:23.310Z,20.80
2017-11-03T06:22:55.013Z,20.78
2017-11-03T06:23:26.655Z,20.76
2017-11-03T06:23:58.305Z,20.75
2017-11-03T06:24:29.950Z,20.76
2017-11-03T06:25:01.598Z,20.76
2017-11-03T06:25:33.238Z,20.76
2017-11-03T06:26:04.884Z,20.75
2017-11-03T06:26:36.534Z,20.75
2017-11-03T06:27:08.182Z,20.74
2017-11-03T06:27:39.833Z,20.75
2017-11-03T06:28:11.717Z,20.75
2017-11-03T06:28:43.470Z,20.74
2017-11-03T06:29:15.157Z,20.73
2017-11-03T06:29:46.801Z,20.73
2017-11-03T06:30:18.445Z,20.73
2017-11-03T06:30:50.098Z,20.73
2017-11-03T06:31:21.743Z,20.71
2017-11-03T06:31:53.434Z,20.70
2017-11-03T06:32:25.081Z,20.70
2017-11-03T06:32:56.730Z,20.69
2017-11-03T06:33:28.377Z,20.68
2017-11-03T06:34:00.020Z,20.66
2017-11-03T06:34:31.749Z,20.66
2017-11-03T06:35:03.682Z,20.65
2017-11-03T06:35:35.334Z,20.63
2017-11-03T06:36:06.981Z,20.64
2017-11-03T06:36:38.625Z,20.63
2017-11-03T06:37:10.309Z,20.62
2017-11-03T06:37:41.957Z,20.61
2017-11-03T06:38:13.613Z,20.61
2017-11-03T06:38:45.281Z,20.60
2017-11-03T06:39:16.977Z,20.59
2017-11-03T06:39:48.626Z,20.60
2017-11-03T06:40:20.507Z,20.57
2017-11-03T06:40:52.157Z,20.56
2017-11-03T06:41:23.806Z,20.56
2017-11-03T06:41:55.453Z,20.55
2017-11-03T06:42:27.097Z,20.55
2017-11-03T06:42:58.737Z,20.56
2017-11-03T06:43:30.386Z,20.55
2017-11-03T06:44:02.030Z,20.56
2017-11-03T06:44:33.722Z,20.56
2017-11-03T06:45:05.598Z,20.55
2017-11-03T06:45:37.547Z,20.55
2017-11-03T06:46:09.201Z,20.53
2017-11-03T06:46:40.894Z,20.53
2017-11-03T06:47:12.781Z,20.52
2017-11-03T06:47:44.429Z,20.51
2017-11-03T06:48:16.069Z,20.50
2017-11-03T06:48:47.713Z,20.49
2017-11-03T06:49:19.361Z,20.51
2017-11-03T06:49:51.006Z,20.50
2017-11-03T06:50:22.649Z,20.51
2017-11-03T06:50:54.297Z,20.51
2017-11-03T06:51:25.938Z,20.52
2017-11-03T06:51:57.625Z,20.51
2017-11-03T06:52:29.269Z,20.50
2017-11-03T06:53:00.954Z,20.50
2017-11-03T06:53:32.598Z,20.50
2017-11-03T06:54:04.246Z,20.51
2017-11-03T06:54:35.890Z,20.49
2017-11-03T06:55:07.533Z,20.49
2017-11-03T06:55:39.178Z,20.50
2017-11-03T06:56:10.999Z,20.49
2017-11-03T06:56:42.646Z,20.49
2017-11-03T06:57:14.334Z,20.48
2017-11-03T06:57:45.981Z,20.48
2017-11-03T06:58:17.625Z,20.49
2017-11-03T06:58:49.502Z,20.49
2017-11-03T06:59:21.149Z,20.51
2017-11-03T06:59:53.074Z,20.52
2017-11-03T07:00:24.721Z,20.53
2017-11-03T07:00:56.391Z,20.54
2017-11-03T07:01:28.268Z,20.55
2017-11-03T07:01:59.914Z,20.58
2017-11-03T07:02:31.557Z,20.60
2017-11-03T07:03:03.268Z,20.62
2017-11-03T07:03:35.216Z,20.63
2017-11-03T07:04:07.111Z,20.62
2017-11-03T07:04:38.757Z,20.62
2017-11-03T07:05:10.411Z,20.62
2017-11-03T07:05:42.061Z,20.65
2017-11-03T07:06:13.729Z,20.67
2017-11-03T07:06:45.677Z,20.69
2017-11-03T07:07:17.503Z,20.71
2017-11-03T07:07:49.840Z,20.73
2017-11-03T07:08:21.486Z,20.73
2017-11-03T07:08:53.170Z,20.74
2017-11-03T07:09:25.120Z,20.74
2017-11-03T07:09:56.994Z,20.76
2017-11-03T07:10:28.641Z,20.75
2017-11-03T07:11:00.281Z,20.77
2017-11-03T07:11:31.926Z,20.79
2017-11-03T07:12:03.574Z,20.87
2017-11-03T07:12:35.473Z,20.90
2017-11-03T07:13:07.176Z,20.94
2017-11-03T07:13:38.825Z,20.96
2017-11-03T07:14:10.545Z,21.00
2017-11-03T07:14:42.197Z,21.12